sensor_id;sensor_type;location;lat;lon;timestamp;P1;durP1;ratioP1;P2;durP2;ratioP2
11443;SDS011;5778;47.856;12.154;2023-06-14T00:00:51;3.87;;;3.03;;
11443;SDS011;5778;47.856;12.154;2023-06-14T00:03:22;2.90;;;2.70;;
11443;SDS011;5778;47.856;12.154;2023-06-14T00:05:49;3.00;;;2.80;;
11443;SDS011;5778;47.856;12.154;2023-06-14T00:08:16;3.03;;;2.73;;
11443;SDS011;5778;47.856;12.154;2023-06-14T00:10:44;3.53;;;3.07;;
11443;SDS011;5778;47.856;12.154;2023-06-14T00:13:11;3.90;;;2.87;;
11443;SDS011;5778;47.856;12.154;2023-06-14T00:15:38;3.23;;;2.93;;
11443;SDS011;5778;47.856;12.154;2023-06-14T00:18:06;3.50;;;3.10;;
11443;SDS011;5778;47.856;12.154;2023-06-14T00:20:34;3.20;;;2.97;;
11443;SDS011;5778;47.856;12.154;2023-06-14T00:23:02;3.60;;;3.30;;
11443;SDS011;5778;47.856;12.154;2023-06-14T00:25:28;4.20;;;3.20;;
11443;SDS011;5778;47.856;12.154;2023-06-14T00:27:55;4.40;;;3.20;;
11443;SDS011;5778;47.856;12.154;2023-06-14T00:30:23;5.07;;;3.27;;
11443;SDS011;5778;47.856;12.154;2023-06-14T00:32:50;2.97;;;2.77;;
11443;SDS011;5778;47.856;12.154;2023-06-14T00:35:19;3.40;;;3.10;;
11443;SDS011;5778;47.856;12.154;2023-06-14T00:37:46;3.10;;;2.90;;
11443;SDS011;5778;47.856;12.154;2023-06-14T00:40:12;3.53;;;3.20;;
11443;SDS011;5778;47.856;12.154;2023-06-14T00:42:39;4.03;;;3.20;;
11443;SDS011;5778;47.856;12.154;2023-06-14T00:45:07;4.60;;;3.20;;
11443;SDS011;5778;47.856;12.154;2023-06-14T00:47:34;3.80;;;3.20;;
11443;SDS011;5778;47.856;12.154;2023-06-14T00:50:03;3.60;;;3.30;;
11443;SDS011;5778;47.856;12.154;2023-06-14T00:52:35;3.73;;;3.03;;
11443;SDS011;5778;47.856;12.154;2023-06-14T00:55:03;3.17;;;2.97;;
11443;SDS011;5778;47.856;12.154;2023-06-14T00:57:31;3.13;;;2.93;;
11443;SDS011;5778;47.856;12.154;2023-06-14T00:59:58;3.30;;;3.00;;
11443;SDS011;5778;47.856;12.154;2023-06-14T01:02:25;5.07;;;3.07;;
11443;SDS011;5778;47.856;12.154;2023-06-14T01:04:52;4.00;;;3.30;;
11443;SDS011;5778;47.856;12.154;2023-06-14T01:07:25;3.67;;;3.00;;
11443;SDS011;5778;47.856;12.154;2023-06-14T01:10:03;7.13;;;3.17;;
11443;SDS011;5778;47.856;12.154;2023-06-14T01:12:39;3.80;;;3.40;;
11443;SDS011;5778;47.856;12.154;2023-06-14T01:15:15;6.10;;;3.70;;
11443;SDS011;5778;47.856;12.154;2023-06-14T01:17:44;5.90;;;4.20;;
11443;SDS011;5778;47.856;12.154;2023-06-14T01:20:13;3.73;;;3.43;;
11443;SDS011;5778;47.856;12.154;2023-06-14T01:22:48;3.70;;;3.27;;
11443;SDS011;5778;47.856;12.154;2023-06-14T01:25:18;3.63;;;3.23;;
11443;SDS011;5778;47.856;12.154;2023-06-14T01:27:48;3.30;;;3.00;;
11443;SDS011;5778;47.856;12.154;2023-06-14T01:30:17;3.97;;;3.50;;
11443;SDS011;5778;47.856;12.154;2023-06-14T01:32:45;4.03;;;3.60;;
11443;SDS011;5778;47.856;12.154;2023-06-14T01:35:13;4.43;;;4.03;;
11443;SDS011;5778;47.856;12.154;2023-06-14T01:37:41;5.20;;;4.10;;
11443;SDS011;5778;47.856;12.154;2023-06-14T01:40:11;8.17;;;4.13;;
11443;SDS011;5778;47.856;12.154;2023-06-14T01:42:41;7.10;;;4.43;;
11443;SDS011;5778;47.856;12.154;2023-06-14T01:45:09;3.80;;;3.50;;
11443;SDS011;5778;47.856;12.154;2023-06-14T01:47:36;3.60;;;3.30;;
11443;SDS011;5778;47.856;12.154;2023-06-14T01:50:04;3.40;;;3.17;;
11443;SDS011;5778;47.856;12.154;2023-06-14T01:52:32;3.77;;;3.43;;
11443;SDS011;5778;47.856;12.154;2023-06-14T01:54:59;4.10;;;3.20;;
11443;SDS011;5778;47.856;12.154;2023-06-14T01:57:30;3.77;;;3.47;;
11443;SDS011;5778;47.856;12.154;2023-06-14T01:59:58;4.10;;;3.23;;
11443;SDS011;5778;47.856;12.154;2023-06-14T02:02:25;3.67;;;3.37;;
11443;SDS011;5778;47.856;12.154;2023-06-14T02:04:52;4.17;;;3.80;;
11443;SDS011;5778;47.856;12.154;2023-06-14T02:07:22;5.23;;;3.80;;
11443;SDS011;5778;47.856;12.154;2023-06-14T02:09:50;4.93;;;4.50;;
11443;SDS011;5778;47.856;12.154;2023-06-14T02:12:17;3.80;;;3.50;;
11443;SDS011;5778;47.856;12.154;2023-06-14T02:14:45;5.97;;;4.10;;
11443;SDS011;5778;47.856;12.154;2023-06-14T02:17:13;4.27;;;3.70;;
11443;SDS011;5778;47.856;12.154;2023-06-14T02:19:41;4.33;;;3.90;;
11443;SDS011;5778;47.856;12.154;2023-06-14T02:22:08;4.17;;;3.77;;
11443;SDS011;5778;47.856;12.154;2023-06-14T02:24:35;3.60;;;3.30;;
11443;SDS011;5778;47.856;12.154;2023-06-14T02:27:01;5.17;;;3.70;;
11443;SDS011;5778;47.856;12.154;2023-06-14T02:29:28;4.00;;;3.47;;
11443;SDS011;5778;47.856;12.154;2023-06-14T02:31:57;5.13;;;3.73;;
11443;SDS011;5778;47.856;12.154;2023-06-14T02:34:24;4.90;;;3.47;;
11443;SDS011;5778;47.856;12.154;2023-06-14T02:36:50;3.87;;;3.33;;
11443;SDS011;5778;47.856;12.154;2023-06-14T02:39:19;4.37;;;3.77;;
11443;SDS011;5778;47.856;12.154;2023-06-14T02:41:48;3.90;;;3.50;;
11443;SDS011;5778;47.856;12.154;2023-06-14T02:44:17;6.43;;;4.07;;
11443;SDS011;5778;47.856;12.154;2023-06-14T02:46:44;4.00;;;3.60;;
11443;SDS011;5778;47.856;12.154;2023-06-14T02:49:14;4.07;;;3.77;;
11443;SDS011;5778;47.856;12.154;2023-06-14T02:51:41;5.67;;;3.67;;
11443;SDS011;5778;47.856;12.154;2023-06-14T02:54:08;4.53;;;4.13;;
11443;SDS011;5778;47.856;12.154;2023-06-14T02:56:37;3.80;;;3.40;;
11443;SDS011;5778;47.856;12.154;2023-06-14T02:59:05;3.90;;;3.57;;
11443;SDS011;5778;47.856;12.154;2023-06-14T03:01:32;4.47;;;3.87;;
11443;SDS011;5778;47.856;12.154;2023-06-14T03:04:03;4.20;;;3.80;;
11443;SDS011;5778;47.856;12.154;2023-06-14T03:06:35;4.40;;;3.70;;
11443;SDS011;5778;47.856;12.154;2023-06-14T03:09:03;4.17;;;3.77;;
11443;SDS011;5778;47.856;12.154;2023-06-14T03:11:31;4.43;;;3.90;;
11443;SDS011;5778;47.856;12.154;2023-06-14T03:14:00;4.30;;;3.90;;
11443;SDS011;5778;47.856;12.154;2023-06-14T03:16:29;3.60;;;3.30;;
11443;SDS011;5778;47.856;12.154;2023-06-14T03:18:58;4.30;;;3.60;;
11443;SDS011;5778;47.856;12.154;2023-06-14T03:21:28;4.97;;;3.40;;
11443;SDS011;5778;47.856;12.154;2023-06-14T03:23:59;4.47;;;3.67;;
11443;SDS011;5778;47.856;12.154;2023-06-14T03:26:28;4.13;;;3.47;;
11443;SDS011;5778;47.856;12.154;2023-06-14T03:28:55;6.33;;;4.60;;
11443;SDS011;5778;47.856;12.154;2023-06-14T03:31:22;4.40;;;3.80;;
11443;SDS011;5778;47.856;12.154;2023-06-14T03:33:50;4.07;;;3.67;;
11443;SDS011;5778;47.856;12.154;2023-06-14T03:36:19;3.90;;;3.50;;
11443;SDS011;5778;47.856;12.154;2023-06-14T03:38:46;4.30;;;3.90;;
11443;SDS011;5778;47.856;12.154;2023-06-14T03:41:17;4.10;;;3.70;;
11443;SDS011;5778;47.856;12.154;2023-06-14T03:43:44;3.93;;;3.63;;
11443;SDS011;5778;47.856;12.154;2023-06-14T03:46:10;4.53;;;3.67;;
11443;SDS011;5778;47.856;12.154;2023-06-14T03:48:37;3.50;;;3.20;;
11443;SDS011;5778;47.856;12.154;2023-06-14T03:51:06;3.60;;;3.30;;
11443;SDS011;5778;47.856;12.154;2023-06-14T03:53:33;4.07;;;3.70;;
11443;SDS011;5778;47.856;12.154;2023-06-14T03:56:03;4.33;;;3.80;;
11443;SDS011;5778;47.856;12.154;2023-06-14T03:58:39;4.20;;;3.80;;
11443;SDS011;5778;47.856;12.154;2023-06-14T04:01:06;5.30;;;3.97;;
11443;SDS011;5778;47.856;12.154;2023-06-14T04:03:33;4.57;;;4.07;;
11443;SDS011;5778;47.856;12.154;2023-06-14T04:06:03;6.23;;;4.13;;
11443;SDS011;5778;47.856;12.154;2023-06-14T04:08:31;4.50;;;4.10;;
11443;SDS011;5778;47.856;12.154;2023-06-14T04:10:58;6.57;;;4.40;;
11443;SDS011;5778;47.856;12.154;2023-06-14T04:13:25;4.10;;;3.80;;
11443;SDS011;5778;47.856;12.154;2023-06-14T04:15:54;5.37;;;3.90;;
11443;SDS011;5778;47.856;12.154;2023-06-14T04:18:26;5.40;;;4.87;;
11443;SDS011;5778;47.856;12.154;2023-06-14T04:20:53;6.60;;;4.03;;
11443;SDS011;5778;47.856;12.154;2023-06-14T04:23:21;4.27;;;3.87;;
11443;SDS011;5778;47.856;12.154;2023-06-14T04:25:49;5.63;;;4.90;;
11443;SDS011;5778;47.856;12.154;2023-06-14T04:28:16;6.60;;;4.90;;
11443;SDS011;5778;47.856;12.154;2023-06-14T04:30:44;6.20;;;4.73;;
11443;SDS011;5778;47.856;12.154;2023-06-14T04:33:15;7.60;;;5.27;;
11443;SDS011;5778;47.856;12.154;2023-06-14T04:35:43;5.53;;;5.10;;
11443;SDS011;5778;47.856;12.154;2023-06-14T04:38:13;9.10;;;5.43;;
11443;SDS011;5778;47.856;12.154;2023-06-14T04:40:40;5.20;;;4.70;;
11443;SDS011;5778;47.856;12.154;2023-06-14T04:43:11;5.70;;;4.60;;
11443;SDS011;5778;47.856;12.154;2023-06-14T04:45:40;5.53;;;4.53;;
11443;SDS011;5778;47.856;12.154;2023-06-14T04:48:10;5.57;;;5.00;;
11443;SDS011;5778;47.856;12.154;2023-06-14T04:50:39;4.63;;;4.23;;
11443;SDS011;5778;47.856;12.154;2023-06-14T04:53:07;6.37;;;3.80;;
11443;SDS011;5778;47.856;12.154;2023-06-14T04:55:34;7.63;;;4.50;;
11443;SDS011;5778;47.856;12.154;2023-06-14T04:58:03;5.47;;;4.17;;
11443;SDS011;5778;47.856;12.154;2023-06-14T05:00:30;6.70;;;4.50;;
11443;SDS011;5778;47.856;12.154;2023-06-14T05:02:57;6.83;;;4.10;;
11443;SDS011;5778;47.856;12.154;2023-06-14T05:05:26;6.67;;;4.53;;
11443;SDS011;5778;47.856;12.154;2023-06-14T05:07:55;4.80;;;4.23;;
11443;SDS011;5778;47.856;12.154;2023-06-14T05:10:22;5.63;;;4.47;;
11443;SDS011;5778;47.856;12.154;2023-06-14T05:12:49;6.10;;;4.17;;
11443;SDS011;5778;47.856;12.154;2023-06-14T05:15:18;5.73;;;4.83;;
11443;SDS011;5778;47.856;12.154;2023-06-14T05:17:45;6.13;;;4.40;;
11443;SDS011;5778;47.856;12.154;2023-06-14T05:20:20;4.73;;;4.30;;
11443;SDS011;5778;47.856;12.154;2023-06-14T05:22:48;5.20;;;4.20;;
11443;SDS011;5778;47.856;12.154;2023-06-14T05:25:18;5.10;;;4.30;;
11443;SDS011;5778;47.856;12.154;2023-06-14T05:27:45;5.20;;;4.50;;
11443;SDS011;5778;47.856;12.154;2023-06-14T05:30:12;5.53;;;4.60;;
11443;SDS011;5778;47.856;12.154;2023-06-14T05:32:40;7.13;;;5.20;;
11443;SDS011;5778;47.856;12.154;2023-06-14T05:35:07;5.10;;;4.60;;
11443;SDS011;5778;47.856;12.154;2023-06-14T05:37:35;6.63;;;3.90;;
11443;SDS011;5778;47.856;12.154;2023-06-14T05:40:02;5.27;;;4.70;;
11443;SDS011;5778;47.856;12.154;2023-06-14T05:42:32;6.10;;;4.10;;
11443;SDS011;5778;47.856;12.154;2023-06-14T05:44:59;5.63;;;4.60;;
11443;SDS011;5778;47.856;12.154;2023-06-14T05:47:26;4.97;;;4.33;;
11443;SDS011;5778;47.856;12.154;2023-06-14T05:49:54;5.30;;;4.50;;
11443;SDS011;5778;47.856;12.154;2023-06-14T05:52:21;5.77;;;4.43;;
11443;SDS011;5778;47.856;12.154;2023-06-14T05:54:48;4.90;;;4.20;;
11443;SDS011;5778;47.856;12.154;2023-06-14T05:57:16;4.50;;;3.90;;
11443;SDS011;5778;47.856;12.154;2023-06-14T05:59:45;5.20;;;4.30;;
11443;SDS011;5778;47.856;12.154;2023-06-14T06:02:11;5.47;;;4.27;;
11443;SDS011;5778;47.856;12.154;2023-06-14T06:04:38;5.87;;;4.20;;
11443;SDS011;5778;47.856;12.154;2023-06-14T06:07:05;7.43;;;4.40;;
11443;SDS011;5778;47.856;12.154;2023-06-14T06:09:32;5.27;;;3.80;;
11443;SDS011;5778;47.856;12.154;2023-06-14T06:11:59;6.87;;;4.70;;
11443;SDS011;5778;47.856;12.154;2023-06-14T06:14:26;5.43;;;4.27;;
11443;SDS011;5778;47.856;12.154;2023-06-14T06:16:55;4.37;;;3.80;;
11443;SDS011;5778;47.856;12.154;2023-06-14T06:19:22;6.53;;;3.57;;
11443;SDS011;5778;47.856;12.154;2023-06-14T06:21:49;5.10;;;3.90;;
11443;SDS011;5778;47.856;12.154;2023-06-14T06:24:16;6.37;;;3.63;;
11443;SDS011;5778;47.856;12.154;2023-06-14T06:26:43;5.10;;;3.70;;
11443;SDS011;5778;47.856;12.154;2023-06-14T06:29:10;4.33;;;3.93;;
11443;SDS011;5778;47.856;12.154;2023-06-14T06:31:37;7.00;;;3.80;;
11443;SDS011;5778;47.856;12.154;2023-06-14T06:34:05;6.47;;;3.37;;
11443;SDS011;5778;47.856;12.154;2023-06-14T06:36:32;5.37;;;3.30;;
11443;SDS011;5778;47.856;12.154;2023-06-14T06:38:59;5.17;;;4.13;;
11443;SDS011;5778;47.856;12.154;2023-06-14T06:41:26;4.93;;;3.40;;
11443;SDS011;5778;47.856;12.154;2023-06-14T06:43:53;3.80;;;3.47;;
11443;SDS011;5778;47.856;12.154;2023-06-14T06:46:20;6.00;;;4.17;;
11443;SDS011;5778;47.856;12.154;2023-06-14T06:48:47;6.17;;;3.87;;
11443;SDS011;5778;47.856;12.154;2023-06-14T06:51:16;7.03;;;3.70;;
11443;SDS011;5778;47.856;12.154;2023-06-14T06:53:42;3.83;;;3.43;;
11443;SDS011;5778;47.856;12.154;2023-06-14T06:56:10;4.03;;;3.60;;
11443;SDS011;5778;47.856;12.154;2023-06-14T06:58:37;3.50;;;3.13;;
11443;SDS011;5778;47.856;12.154;2023-06-14T07:01:03;5.03;;;3.90;;
11443;SDS011;5778;47.856;12.154;2023-06-14T07:03:30;4.23;;;3.30;;
11443;SDS011;5778;47.856;12.154;2023-06-14T07:05:57;3.33;;;3.07;;
11443;SDS011;5778;47.856;12.154;2023-06-14T07:08:26;4.10;;;3.17;;
11443;SDS011;5778;47.856;12.154;2023-06-14T07:10:53;4.70;;;3.50;;
11443;SDS011;5778;47.856;12.154;2023-06-14T07:13:20;3.90;;;3.30;;
11443;SDS011;5778;47.856;12.154;2023-06-14T07:15:46;3.50;;;3.13;;
11443;SDS011;5778;47.856;12.154;2023-06-14T07:18:13;4.17;;;3.23;;
11443;SDS011;5778;47.856;12.154;2023-06-14T07:20:40;3.77;;;3.30;;
11443;SDS011;5778;47.856;12.154;2023-06-14T07:23:08;7.93;;;3.77;;
11443;SDS011;5778;47.856;12.154;2023-06-14T07:25:37;7.50;;;3.40;;
11443;SDS011;5778;47.856;12.154;2023-06-14T07:28:04;6.60;;;3.47;;
11443;SDS011;5778;47.856;12.154;2023-06-14T07:30:31;4.37;;;2.90;;
11443;SDS011;5778;47.856;12.154;2023-06-14T07:32:58;8.07;;;3.33;;
11443;SDS011;5778;47.856;12.154;2023-06-14T07:35:25;6.03;;;3.60;;
11443;SDS011;5778;47.856;12.154;2023-06-14T07:37:52;4.63;;;3.10;;
11443;SDS011;5778;47.856;12.154;2023-06-14T07:40:19;3.57;;;3.20;;
11443;SDS011;5778;47.856;12.154;2023-06-14T07:42:47;5.47;;;3.10;;
11443;SDS011;5778;47.856;12.154;2023-06-14T07:45:15;4.60;;;3.57;;
11443;SDS011;5778;47.856;12.154;2023-06-14T07:47:43;4.97;;;3.43;;
11443;SDS011;5778;47.856;12.154;2023-06-14T07:50:10;4.67;;;3.70;;
11443;SDS011;5778;47.856;12.154;2023-06-14T07:52:37;3.67;;;3.37;;
11443;SDS011;5778;47.856;12.154;2023-06-14T07:55:05;4.00;;;3.60;;
11443;SDS011;5778;47.856;12.154;2023-06-14T07:57:32;5.63;;;3.63;;
11443;SDS011;5778;47.856;12.154;2023-06-14T08:00:02;3.03;;;2.73;;
11443;SDS011;5778;47.856;12.154;2023-06-14T08:02:37;5.53;;;3.10;;
11443;SDS011;5778;47.856;12.154;2023-06-14T08:05:04;5.43;;;3.40;;
11443;SDS011;5778;47.856;12.154;2023-06-14T08:07:31;3.40;;;2.60;;
11443;SDS011;5778;47.856;12.154;2023-06-14T08:09:58;2.73;;;2.47;;
11443;SDS011;5778;47.856;12.154;2023-06-14T08:12:25;2.80;;;2.57;;
11443;SDS011;5778;47.856;12.154;2023-06-14T08:14:52;6.30;;;3.00;;
11443;SDS011;5778;47.856;12.154;2023-06-14T08:17:20;3.23;;;2.93;;
11443;SDS011;5778;47.856;12.154;2023-06-14T08:19:47;3.30;;;2.97;;
11443;SDS011;5778;47.856;12.154;2023-06-14T08:22:14;4.57;;;2.87;;
11443;SDS011;5778;47.856;12.154;2023-06-14T08:24:43;5.97;;;2.87;;
11443;SDS011;5778;47.856;12.154;2023-06-14T08:27:10;2.93;;;2.43;;
11443;SDS011;5778;47.856;12.154;2023-06-14T08:29:38;3.97;;;2.80;;
11443;SDS011;5778;47.856;12.154;2023-06-14T08:32:06;2.70;;;2.30;;
11443;SDS011;5778;47.856;12.154;2023-06-14T08:34:34;2.90;;;2.10;;
11443;SDS011;5778;47.856;12.154;2023-06-14T08:37:01;4.70;;;2.53;;
11443;SDS011;5778;47.856;12.154;2023-06-14T08:39:28;3.23;;;2.50;;
11443;SDS011;5778;47.856;12.154;2023-06-14T08:41:55;2.57;;;2.37;;
11443;SDS011;5778;47.856;12.154;2023-06-14T08:44:23;2.90;;;2.37;;
11443;SDS011;5778;47.856;12.154;2023-06-14T08:46:50;7.73;;;2.80;;
11443;SDS011;5778;47.856;12.154;2023-06-14T08:49:18;2.60;;;2.40;;
11443;SDS011;5778;47.856;12.154;2023-06-14T08:51:48;4.07;;;2.60;;
11443;SDS011;5778;47.856;12.154;2023-06-14T08:54:20;2.60;;;2.40;;
11443;SDS011;5778;47.856;12.154;2023-06-14T08:56:49;2.30;;;2.07;;
11443;SDS011;5778;47.856;12.154;2023-06-14T08:59:17;4.57;;;2.50;;
11443;SDS011;5778;47.856;12.154;2023-06-14T09:01:46;2.23;;;2.10;;
11443;SDS011;5778;47.856;12.154;2023-06-14T09:04:14;2.37;;;2.17;;
11443;SDS011;5778;47.856;12.154;2023-06-14T09:06:41;4.10;;;2.30;;
11443;SDS011;5778;47.856;12.154;2023-06-14T09:09:10;5.47;;;2.43;;
11443;SDS011;5778;47.856;12.154;2023-06-14T09:11:37;4.40;;;2.20;;
11443;SDS011;5778;47.856;12.154;2023-06-14T09:14:04;2.50;;;2.30;;
11443;SDS011;5778;47.856;12.154;2023-06-14T09:16:32;4.30;;;2.30;;
11443;SDS011;5778;47.856;12.154;2023-06-14T09:18:58;6.57;;;2.30;;
11443;SDS011;5778;47.856;12.154;2023-06-14T09:21:25;2.87;;;2.33;;
11443;SDS011;5778;47.856;12.154;2023-06-14T09:23:52;3.17;;;2.37;;
11443;SDS011;5778;47.856;12.154;2023-06-14T09:26:20;3.23;;;2.37;;
11443;SDS011;5778;47.856;12.154;2023-06-14T09:28:49;2.47;;;2.27;;
11443;SDS011;5778;47.856;12.154;2023-06-14T09:31:17;2.67;;;2.20;;
11443;SDS011;5778;47.856;12.154;2023-06-14T09:33:45;3.73;;;2.47;;
11443;SDS011;5778;47.856;12.154;2023-06-14T09:36:14;4.80;;;2.50;;
11443;SDS011;5778;47.856;12.154;2023-06-14T09:38:51;2.17;;;2.03;;
11443;SDS011;5778;47.856;12.154;2023-06-14T09:41:21;2.80;;;2.37;;
11443;SDS011;5778;47.856;12.154;2023-06-14T09:43:57;4.00;;;2.10;;
11443;SDS011;5778;47.856;12.154;2023-06-14T09:46:26;4.17;;;2.20;;
11443;SDS011;5778;47.856;12.154;2023-06-14T09:48:53;2.20;;;2.00;;
11443;SDS011;5778;47.856;12.154;2023-06-14T09:51:20;2.40;;;2.20;;
11443;SDS011;5778;47.856;12.154;2023-06-14T09:53:49;3.23;;;2.43;;
11443;SDS011;5778;47.856;12.154;2023-06-14T09:56:17;2.10;;;1.97;;
11443;SDS011;5778;47.856;12.154;2023-06-14T09:58:54;3.20;;;2.20;;
11443;SDS011;5778;47.856;12.154;2023-06-14T10:01:22;2.33;;;2.17;;
11443;SDS011;5778;47.856;12.154;2023-06-14T10:03:53;2.70;;;2.50;;
11443;SDS011;5778;47.856;12.154;2023-06-14T10:06:26;2.80;;;2.37;;
11443;SDS011;5778;47.856;12.154;2023-06-14T10:08:56;2.30;;;2.10;;
11443;SDS011;5778;47.856;12.154;2023-06-14T10:11:26;2.70;;;2.20;;
11443;SDS011;5778;47.856;12.154;2023-06-14T10:13:54;3.93;;;2.50;;
11443;SDS011;5778;47.856;12.154;2023-06-14T10:16:23;2.73;;;2.40;;
11443;SDS011;5778;47.856;12.154;2023-06-14T10:18:59;2.50;;;2.30;;
11443;SDS011;5778;47.856;12.154;2023-06-14T10:21:28;2.20;;;2.00;;
11443;SDS011;5778;47.856;12.154;2023-06-14T10:24:05;2.73;;;2.20;;
11443;SDS011;5778;47.856;12.154;2023-06-14T10:26:40;3.37;;;2.30;;
11443;SDS011;5778;47.856;12.154;2023-06-14T10:29:17;2.77;;;2.40;;
11443;SDS011;5778;47.856;12.154;2023-06-14T10:31:44;3.77;;;2.47;;
11443;SDS011;5778;47.856;12.154;2023-06-14T10:34:12;2.33;;;2.00;;
11443;SDS011;5778;47.856;12.154;2023-06-14T10:36:59;2.30;;;2.10;;
11443;SDS011;5778;47.856;12.154;2023-06-14T10:39:28;4.07;;;2.40;;
11443;SDS011;5778;47.856;12.154;2023-06-14T10:41:57;2.50;;;2.30;;
11443;SDS011;5778;47.856;12.154;2023-06-14T10:44:33;2.57;;;2.37;;
11443;SDS011;5778;47.856;12.154;2023-06-14T10:47:00;2.50;;;2.30;;
11443;SDS011;5778;47.856;12.154;2023-06-14T10:49:38;4.07;;;2.40;;
11443;SDS011;5778;47.856;12.154;2023-06-14T10:52:11;2.40;;;2.20;;
11443;SDS011;5778;47.856;12.154;2023-06-14T10:57:41;2.43;;;2.13;;
11443;SDS011;5778;47.856;12.154;2023-06-14T11:00:11;3.47;;;2.60;;
11443;SDS011;5778;47.856;12.154;2023-06-14T11:02:50;4.20;;;2.50;;
11443;SDS011;5778;47.856;12.154;2023-06-14T11:05:23;3.60;;;2.63;;
11443;SDS011;5778;47.856;12.154;2023-06-14T11:08:18;3.15;;;2.65;;
11443;SDS011;5778;47.856;12.154;2023-06-14T11:11:05;3.30;;;2.20;;
11443;SDS011;5778;47.856;12.154;2023-06-14T11:13:34;2.38;;;2.20;;
11443;SDS011;5778;47.856;12.154;2023-06-14T11:16:09;2.70;;;2.50;;
11443;SDS011;5778;47.856;12.154;2023-06-14T11:18:37;4.63;;;2.70;;
11443;SDS011;5778;47.856;12.154;2023-06-14T11:21:04;4.00;;;2.60;;
11443;SDS011;5778;47.856;12.154;2023-06-14T11:23:31;2.83;;;2.50;;
11443;SDS011;5778;47.856;12.154;2023-06-14T11:25:58;4.70;;;2.40;;
11443;SDS011;5778;47.856;12.154;2023-06-14T11:28:25;3.10;;;2.50;;
11443;SDS011;5778;47.856;12.154;2023-06-14T11:31:03;2.80;;;2.60;;
11443;SDS011;5778;47.856;12.154;2023-06-14T11:33:31;3.08;;;2.70;;
11443;SDS011;5778;47.856;12.154;2023-06-14T11:35:57;2.75;;;2.55;;
11443;SDS011;5778;47.856;12.154;2023-06-14T11:38:25;2.80;;;2.43;;
11443;SDS011;5778;47.856;12.154;2023-06-14T11:40:52;2.63;;;2.35;;
11443;SDS011;5778;47.856;12.154;2023-06-14T11:43:18;2.63;;;2.42;;
11443;SDS011;5778;47.856;12.154;2023-06-14T11:45:49;6.47;;;2.50;;
11443;SDS011;5778;47.856;12.154;2023-06-14T11:48:16;2.67;;;2.30;;
11443;SDS011;5778;47.856;12.154;2023-06-14T11:50:43;2.60;;;2.37;;
11443;SDS011;5778;47.856;12.154;2023-06-14T11:53:10;2.40;;;2.23;;
11443;SDS011;5778;47.856;12.154;2023-06-14T11:55:37;2.47;;;2.25;;
11443;SDS011;5778;47.856;12.154;2023-06-14T11:58:05;3.75;;;2.25;;
11443;SDS011;5778;47.856;12.154;2023-06-14T12:00:32;4.87;;;2.60;;
11443;SDS011;5778;47.856;12.154;2023-06-14T12:03:04;6.47;;;2.80;;
11443;SDS011;5778;47.856;12.154;2023-06-14T12:05:32;2.60;;;2.40;;
11443;SDS011;5778;47.856;12.154;2023-06-14T12:08:01;2.90;;;2.60;;
11443;SDS011;5778;47.856;12.154;2023-06-14T12:10:39;3.22;;;2.63;;
11443;SDS011;5778;47.856;12.154;2023-06-14T12:13:06;2.78;;;2.58;;
11443;SDS011;5778;47.856;12.154;2023-06-14T12:15:34;5.10;;;2.40;;
11443;SDS011;5778;47.856;12.154;2023-06-14T12:18:01;2.80;;;2.50;;
11443;SDS011;5778;47.856;12.154;2023-06-14T12:20:34;3.35;;;2.42;;
11443;SDS011;5778;47.856;12.154;2023-06-14T12:23:03;2.83;;;2.40;;
11443;SDS011;5778;47.856;12.154;2023-06-14T12:25:31;3.78;;;2.47;;
11443;SDS011;5778;47.856;12.154;2023-06-14T12:27:59;3.20;;;2.40;;
11443;SDS011;5778;47.856;12.154;2023-06-14T12:30:30;2.65;;;2.40;;
11443;SDS011;5778;47.856;12.154;2023-06-14T12:32:57;3.78;;;2.40;;
11443;SDS011;5778;47.856;12.154;2023-06-14T12:35:25;3.03;;;2.25;;
11443;SDS011;5778;47.856;12.154;2023-06-14T12:37:52;2.70;;;2.38;;
11443;SDS011;5778;47.856;12.154;2023-06-14T12:40:19;2.83;;;2.50;;
11443;SDS011;5778;47.856;12.154;2023-06-14T12:42:46;4.35;;;2.70;;
11443;SDS011;5778;47.856;12.154;2023-06-14T12:45:13;2.60;;;2.40;;
11443;SDS011;5778;47.856;12.154;2023-06-14T12:47:40;2.80;;;2.50;;
11443;SDS011;5778;47.856;12.154;2023-06-14T12:50:07;2.45;;;2.10;;
11443;SDS011;5778;47.856;12.154;2023-06-14T12:52:36;2.25;;;2.05;;
11443;SDS011;5778;47.856;12.154;2023-06-14T12:55:03;3.58;;;2.58;;
11443;SDS011;5778;47.856;12.154;2023-06-14T12:57:30;3.53;;;2.35;;
11443;SDS011;5778;47.856;12.154;2023-06-14T12:59:59;6.20;;;2.58;;
11443;SDS011;5778;47.856;12.154;2023-06-14T13:02:26;2.55;;;2.28;;
11443;SDS011;5778;47.856;12.154;2023-06-14T13:04:54;3.72;;;2.50;;
11443;SDS011;5778;47.856;12.154;2023-06-14T13:07:23;3.33;;;2.35;;
11443;SDS011;5778;47.856;12.154;2023-06-14T13:09:51;3.70;;;2.50;;
11443;SDS011;5778;47.856;12.154;2023-06-14T13:12:18;4.43;;;2.40;;
11443;SDS011;5778;47.856;12.154;2023-06-14T13:14:45;3.00;;;2.40;;
11443;SDS011;5778;47.856;12.154;2023-06-14T13:17:12;2.70;;;2.50;;
11443;SDS011;5778;47.856;12.154;2023-06-14T13:19:39;4.43;;;2.50;;
11443;SDS011;5778;47.856;12.154;2023-06-14T13:22:07;2.60;;;2.40;;
11443;SDS011;5778;47.856;12.154;2023-06-14T13:24:34;2.58;;;2.38;;
11443;SDS011;5778;47.856;12.154;2023-06-14T13:27:03;3.25;;;2.53;;
11443;SDS011;5778;47.856;12.154;2023-06-14T13:29:30;3.85;;;2.40;;
11443;SDS011;5778;47.856;12.154;2023-06-14T13:31:58;2.78;;;2.58;;
11443;SDS011;5778;47.856;12.154;2023-06-14T13:34:26;5.88;;;2.85;;
11443;SDS011;5778;47.856;12.154;2023-06-14T13:36:52;3.88;;;2.50;;
11443;SDS011;5778;47.856;12.154;2023-06-14T13:39:20;3.97;;;2.30;;
11443;SDS011;5778;47.856;12.154;2023-06-14T13:41:47;3.38;;;2.67;;
11443;SDS011;5778;47.856;12.154;2023-06-14T13:44:16;4.38;;;2.83;;
11443;SDS011;5778;47.856;12.154;2023-06-14T13:46:46;2.63;;;2.35;;
11443;SDS011;5778;47.856;12.154;2023-06-14T13:49:13;3.45;;;2.47;;
11443;SDS011;5778;47.856;12.154;2023-06-14T13:51:40;3.15;;;2.30;;
11443;SDS011;5778;47.856;12.154;2023-06-14T13:54:06;3.50;;;2.17;;
11443;SDS011;5778;47.856;12.154;2023-06-14T13:56:33;2.55;;;2.30;;
11443;SDS011;5778;47.856;12.154;2023-06-14T13:59:00;3.20;;;2.50;;
11443;SDS011;5778;47.856;12.154;2023-06-14T14:01:28;2.88;;;2.35;;
11443;SDS011;5778;47.856;12.154;2023-06-14T14:03:55;3.20;;;2.20;;
11443;SDS011;5778;47.856;12.154;2023-06-14T14:06:23;5.28;;;2.85;;
11443;SDS011;5778;47.856;12.154;2023-06-14T14:08:50;3.25;;;2.10;;
11443;SDS011;5778;47.856;12.154;2023-06-14T14:11:17;2.97;;;2.00;;
11443;SDS011;5778;47.856;12.154;2023-06-14T14:13:45;3.30;;;2.40;;
11443;SDS011;5778;47.856;12.154;2023-06-14T14:16:12;3.85;;;2.35;;
11443;SDS011;5778;47.856;12.154;2023-06-14T14:18:41;3.75;;;2.45;;
11443;SDS011;5778;47.856;12.154;2023-06-14T14:21:08;2.55;;;2.35;;
11443;SDS011;5778;47.856;12.154;2023-06-14T14:23:35;2.45;;;2.25;;
11443;SDS011;5778;47.856;12.154;2023-06-14T14:26:02;2.55;;;2.28;;
11443;SDS011;5778;47.856;12.154;2023-06-14T14:28:29;4.35;;;2.30;;
11443;SDS011;5778;47.856;12.154;2023-06-14T14:30:56;2.90;;;2.20;;
11443;SDS011;5778;47.856;12.154;2023-06-14T14:33:23;4.55;;;2.63;;
11443;SDS011;5778;47.856;12.154;2023-06-14T14:35:51;3.50;;;2.30;;
11443;SDS011;5778;47.856;12.154;2023-06-14T14:38:18;3.65;;;2.20;;
11443;SDS011;5778;47.856;12.154;2023-06-14T14:40:45;2.50;;;2.30;;
11443;SDS011;5778;47.856;12.154;2023-06-14T14:43:11;2.33;;;2.13;;
11443;SDS011;5778;47.856;12.154;2023-06-14T14:45:39;3.38;;;2.40;;
11443;SDS011;5778;47.856;12.154;2023-06-14T14:48:06;2.60;;;2.40;;
11443;SDS011;5778;47.856;12.154;2023-06-14T14:50:33;3.67;;;2.55;;
11443;SDS011;5778;47.856;12.154;2023-06-14T14:53:01;3.75;;;2.40;;
11443;SDS011;5778;47.856;12.154;2023-06-14T14:55:28;2.78;;;2.33;;
11443;SDS011;5778;47.856;12.154;2023-06-14T14:57:55;3.75;;;2.22;;